Clifford Maersk — OYRO2 — position and weather

sailwx.info

Track history (hours):
 
Tides and Currents Weather Stations Pressure Air Temp Water Temp Dewpoint Dewpoint Depression Visibility Wind Speed Wind Dir Waves Ship Positions

Clifford Maersk

Last reported at 2014-Aug-02 08:31 UTC. Time now 2014-Aug-02 08:43 UTC.
Position N 51°58' E 004°03'.

Type: Ship (hazmat cat A). MMSI: 219840000.

Date/timePositionNaut miles runAvg speedWind from/ knotsBaromVisibWave heightAir tempDewpointWater temp
2014-Aug-02 08:31N 51°58' E 004°03'0 0.0
2014-Aug-02 07:31N 51°58' E 004°03'0 0.0
2014-Aug-02 06:31N 51°58' E 004°03'0 0.0
2014-Aug-02 05:31N 51°58' E 004°03'2 1.7
2014-Aug-02 04:33N 51°59' E 004°04'1110.7
2014-Aug-02 03:33N 51°60' E 003°47'8 8.2
2014-Aug-02 02:33N 51°57' E 003°35'9 9.1
2014-Aug-02 01:33N 51°54' E 003°21'9 8.9
2014-Aug-02 00:32N 51°52' E 003°06'9 8.8
2014-Aug-01 23:33N 51°45' E 002°58'8 8.4
2014-Aug-01 22:33N 51°38' E 002°51'8 8.2
2014-Aug-01 21:32N 51°31' E 002°44'8 8.3
2014-Aug-01 20:33N 51°22' E 002°43'1615.6
2014-Aug-01 19:33N 51°24' E 003°08'4 3.5
2014-Aug-01 18:31N 51°21' E 003°11'0 0.0
2014-Aug-01 17:31N 51°21' E 003°11'0 0.0
2014-Aug-01 16:28N 51°21' E 003°11'0 0.0
2014-Aug-01 15:28N 51°21' E 003°11'0 0.0
2014-Aug-01 14:31N 51°21' E 003°11'0 0.0
2014-Aug-01 13:31N 51°21' E 003°11'0 0.0
2014-Aug-01 12:28N 51°21' E 003°11'0 0.0
2014-Aug-01 11:31N 51°21' E 003°11'0 0.0
2014-Aug-01 10:31N 51°21' E 003°11'0 0.0
2014-Aug-01 09:31N 51°21' E 003°11'0 0.0
2014-Aug-01 08:31N 51°21' E 003°11'0 0.0
2014-Aug-01 07:31N 51°21' E 003°11'0 0.0
2014-Aug-01 06:31N 51°21' E 003°11'0 0.0
2014-Aug-01 05:28N 51°21' E 003°11'0 0.0
2014-Aug-01 04:28N 51°21' E 003°11'0 0.0
2014-Aug-01 03:22N 51°21' E 003°11'0 0.0
2014-Aug-01 02:19N 51°21' E 003°11'0 0.0
2014-Aug-01 01:28N 51°21' E 003°11'0 0.0
2014-Aug-01 00:28N 51°21' E 003°11'0 0.0
2014-Jul-31 23:31N 51°21' E 003°11'0 0.0
2014-Jul-31 22:28N 51°21' E 003°11'0 0.0
2014-Jul-31 21:31N 51°21' E 003°11'0 0.0
2014-Jul-31 20:28N 51°21' E 003°11'0 0.0
2014-Jul-31 19:28N 51°21' E 003°11'0 0.0
2014-Jul-31 18:31N 51°21' E 003°11'0 0.0
2014-Jul-31 17:31N 51°21' E 003°11'0 0.0
2014-Jul-31 16:31N 51°21' E 003°11'0 0.0
2014-Jul-31 15:31N 51°21' E 003°11'0 0.0
2014-Jul-31 14:31N 51°21' E 003°11'0 0.0
2014-Jul-31 13:31N 51°21' E 003°11'0 0.0
2014-Jul-31 12:33N 51°21' E 003°11'8 7.6
2014-Jul-31 11:33N 51°25' E 003°01'1212.5
2014-Jul-31 10:34N 51°22' E 002°41'1717.3
2014-Jul-31 09:33N 51°18' E 002°14'1919.4
2014-Jul-31 08:33N 51°32' E 001°52'2020.0
2014-Jul-31 07:33N 51°51' E 001°41'1010.1
2014-Jul-31 06:33N 51°56' E 001°27'6 6.1
2014-Jul-31 05:33N 51°58' E 001°17'0 0.0
2014-Jul-31 04:32N 51°58' E 001°17'0 0.0
2014-Jul-31 03:32N 51°58' E 001°17'0 0.0
2014-Jul-31 02:32N 51°58' E 001°17'0 0.0
2014-Jul-31 01:32N 51°58' E 001°17'0 0.0
2014-Jul-31 00:32N 51°58' E 001°17'0 0.0
2014-Jul-30 23:33N 51°58' E 001°17'0 0.0
2014-Jul-30 22:32N 51°58' E 001°17'0 0.0
2014-Jul-30 21:32N 51°58' E 001°17'0 0.0
2014-Jul-30 20:32N 51°58' E 001°17'0 0.0
2014-Jul-30 19:32N 51°58' E 001°17'0 0.0
2014-Jul-30 18:32N 51°58' E 001°17'0 0.0
2014-Jul-30 17:32N 51°58' E 001°17'0 0.0
2014-Jul-30 16:32N 51°58' E 001°17'0 0.0
2014-Jul-30 15:32N 51°58' E 001°17'0 0.0
2014-Jul-30 14:32N 51°58' E 001°17'0 0.0
2014-Jul-30 13:32N 51°58' E 001°17'0 0.0
2014-Jul-30 12:32N 51°58' E 001°17'0 0.0
2014-Jul-30 11:32N 51°58' E 001°17'0 0.0
2014-Jul-30 10:32N 51°58' E 001°17'0 0.0
2014-Jul-30 09:32N 51°58' E 001°17'0 0.0
2014-Jul-30 08:32N 51°58' E 001°17'0 0.0
2014-Jul-30 07:32N 51°58' E 001°17'0 0.0
2014-Jul-30 06:32N 51°58' E 001°17'0 0.0
2014-Jul-30 05:32N 51°58' E 001°17'0 0.0
2014-Jul-30 04:32N 51°58' E 001°17'0 0.0
2014-Jul-30 03:32N 51°58' E 001°17'0 0.0
2014-Jul-30 02:32N 51°58' E 001°17'0 0.0
2014-Jul-30 01:32N 51°58' E 001°17'0 0.0
2014-Jul-30 00:32N 51°58' E 001°17'0 0.0
2014-Jul-29 23:32N 51°58' E 001°17'0 0.0
2014-Jul-29 22:32N 51°58' E 001°17'0 0.0
2014-Jul-29 21:32N 51°58' E 001°17'0 0.0
2014-Jul-29 20:32N 51°58' E 001°17'0 0.0
2014-Jul-29 19:33N 51°58' E 001°17'0 0.0
2014-Jul-29 18:33N 51°58' E 001°17'0 0.0
2014-Jul-29 17:33N 51°58' E 001°17'0 0.0
2014-Jul-29 16:33N 51°58' E 001°17'0 0.0
2014-Jul-29 15:33N 51°58' E 001°17'0 0.0
2014-Jul-29 14:33N 51°58' E 001°17'0 0.0
2014-Jul-29 13:33N 51°58' E 001°17'0 0.0
2014-Jul-29 12:33N 51°58' E 001°17'0 0.0
2014-Jul-29 11:33N 51°58' E 001°17'3 2.8
2014-Jul-29 10:33N 51°55' E 001°20'1010.0
2014-Jul-29 09:33N 51°52' E 001°35'6 5.7
2014-Jul-29 08:33N 51°51' E 001°44'6 6.3
2014-Jul-29 07:34N 51°45' E 001°48'1111.1
2014-Jul-29 06:34N 51°34' E 001°48'1919.3
2014-Jul-29 05:34N 51°16' E 001°39'1514.9
2014-Jul-29 04:33N 51°01' E 001°36'2218.8
2014-Jul-29 03:24N 50°42' E 001°20'1518.1
2014-Jul-29 02:33N 50°32' E 001°00'1817.7
2014-Jul-29 01:33N 50°26' E 000°34'5919.3
2014-Jul-28 22:28N 50°10' W 000°56'2122.1
2014-Jul-28 21:32N 50°05' W 001°27'2922.7
2014-Jul-28 20:17N 49°58' W 002°10'70019.1
2014-Jul-27 07:33N 39°38' W 009°50'2120.7
2014-Jul-27 06:33N 39°17' W 009°51'2020.5
2014-Jul-27 05:33N 38°57' W 009°51'2020.3
2014-Jul-27 04:33N 38°37' W 009°50'2321.0
2014-Jul-27 03:28N 38°15' W 009°43'1920.6
2014-Jul-27 02:32N 37°56' W 009°38'2120.8
2014-Jul-27 01:33N 37°36' W 009°33'2120.8
2014-Jul-27 00:33N 37°16' W 009°26'2020.3
2014-Jul-26 23:33N 36°56' W 009°21'2020.0
2014-Jul-26 22:33N 36°42' W 009°02'2020.5
2014-Jul-26 21:33N 36°37' W 008°38'2120.6
2014-Jul-26 20:33N 36°30' W 008°13'2120.6
2014-Jul-26 19:33N 36°24' W 007°49'2020.5
2014-Jul-26 18:33N 36°18' W 007°25'2020.2
2014-Jul-26 17:33N 36°11' W 007°01'2020.0
2014-Jul-26 16:33N 36°05' W 006°38'1919.2
2014-Jul-26 15:33N 35°58' W 006°15'1918.8
2014-Jul-26 14:33N 35°58' W 005°52'2118.5
2014-Jul-26 13:24N 36°00' W 005°26'26120.1
2014-Jul-26 00:27N 36°33' W 000°05'1820.3
2014-Jul-25 23:33N 36°37' E 000°17'18420.3
2014-Jul-25 14:31N 37°06' E 004°04'2420.3
2014-Jul-25 13:21N 37°08' E 004°34'1620.6
2014-Jul-25 12:33N 37°11' E 004°54'4621.0
2014-Jul-25 10:21N 37°19' E 005°51'1618.9
2014-Jul-25 09:29N 37°22' E 006°11'4920.7
2014-Jul-25 07:09N 37°30' E 007°12'1520.6
2014-Jul-25 06:24N 37°33' E 007°31'2720.9
2014-Jul-25 05:07N 37°37' E 008°04'1221.2
2014-Jul-25 04:33N 37°38' E 008°19'2520.6
2014-Jul-25 03:20N 37°42' E 008°50'1620.0
2014-Jul-25 02:33N 37°42' E 009°10'2020.0
2014-Jul-25 01:33N 37°41' E 009°35'2020.0
2014-Jul-25 00:32N 37°40' E 010°01'2019.9
2014-Jul-24 23:32N 37°37' E 010°26'2020.5
2014-Jul-24 22:33N 37°33' E 010°50'6420.8
2014-Jul-24 19:27N 37°06' E 012°04'1820.4
2014-Jul-24 18:33N 37°01' E 012°26'2020.4
2014-Jul-24 17:33N 36°54' E 012°50'2120.7
2014-Jul-24 16:33N 36°48' E 013°15'2120.6
2014-Jul-24 15:33N 36°41' E 013°39'2120.6
2014-Jul-24 14:33N 36°35' E 014°04'2020.4
2014-Jul-24 13:33N 36°29' E 014°28'2020.0
2014-Jul-24 12:33N 36°22' E 014°51'2120.3
2014-Jul-24 11:33N 36°16' E 015°16'49520.5
2014-Jul-23 11:28N 33°44' E 024°50'2320.9
2014-Jul-23 10:21N 33°37' E 025°17'1720.6
2014-Jul-23 09:31N 33°32' E 025°37'  
Track history (hours):
 
Tides and Currents Weather Stations Pressure Air Temp Water Temp Dewpoint Dewpoint Depression Visibility Wind Speed Wind Dir Waves Ship Positions

Clifford Maersk

Last reported at 2014-Aug-02 08:31 UTC. Time now 2014-Aug-02 08:43 UTC.
Position N 51°58' E 004°03'.

Type: Ship (hazmat cat A). MMSI: 219840000.

Date/timePositionNaut miles runAvg speedWind from/ knotsBaromVisibWave heightAir tempDewpointWater temp
2014-Aug-02 08:31N 51°58' E 004°03'0 0.0
2014-Aug-02 07:31N 51°58' E 004°03'0 0.0
2014-Aug-02 06:31N 51°58' E 004°03'0 0.0
2014-Aug-02 05:31N 51°58' E 004°03'2 1.7
2014-Aug-02 04:33N 51°59' E 004°04'1110.7
2014-Aug-02 03:33N 51°60' E 003°47'8 8.2
2014-Aug-02 02:33N 51°57' E 003°35'9 9.1
2014-Aug-02 01:33N 51°54' E 003°21'9 8.9
2014-Aug-02 00:32N 51°52' E 003°06'9 8.8
2014-Aug-01 23:33N 51°45' E 002°58'8 8.4
2014-Aug-01 22:33N 51°38' E 002°51'8 8.2
2014-Aug-01 21:32N 51°31' E 002°44'8 8.3
2014-Aug-01 20:33N 51°22' E 002°43'1615.6
2014-Aug-01 19:33N 51°24' E 003°08'4 3.5
2014-Aug-01 18:31N 51°21' E 003°11'0 0.0
2014-Aug-01 17:31N 51°21' E 003°11'0 0.0
2014-Aug-01 16:28N 51°21' E 003°11'0 0.0
2014-Aug-01 15:28N 51°21' E 003°11'0 0.0
2014-Aug-01 14:31N 51°21' E 003°11'0 0.0
2014-Aug-01 13:31N 51°21' E 003°11'0 0.0
2014-Aug-01 12:28N 51°21' E 003°11'0 0.0
2014-Aug-01 11:31N 51°21' E 003°11'0 0.0
2014-Aug-01 10:31N 51°21' E 003°11'0 0.0
2014-Aug-01 09:31N 51°21' E 003°11'0 0.0
2014-Aug-01 08:31N 51°21' E 003°11'0 0.0
2014-Aug-01 07:31N 51°21' E 003°11'0 0.0
2014-Aug-01 06:31N 51°21' E 003°11'0 0.0
2014-Aug-01 05:28N 51°21' E 003°11'0 0.0
2014-Aug-01 04:28N 51°21' E 003°11'0 0.0
2014-Aug-01 03:22N 51°21' E 003°11'0 0.0
2014-Aug-01 02:19N 51°21' E 003°11'0 0.0
2014-Aug-01 01:28N 51°21' E 003°11'0 0.0
2014-Aug-01 00:28N 51°21' E 003°11'0 0.0
2014-Jul-31 23:31N 51°21' E 003°11'0 0.0
2014-Jul-31 22:28N 51°21' E 003°11'0 0.0
2014-Jul-31 21:31N 51°21' E 003°11'0 0.0
2014-Jul-31 20:28N 51°21' E 003°11'0 0.0
2014-Jul-31 19:28N 51°21' E 003°11'0 0.0
2014-Jul-31 18:31N 51°21' E 003°11'0 0.0
2014-Jul-31 17:31N 51°21' E 003°11'0 0.0
2014-Jul-31 16:31N 51°21' E 003°11'0 0.0
2014-Jul-31 15:31N 51°21' E 003°11'0 0.0
2014-Jul-31 14:31N 51°21' E 003°11'0 0.0
2014-Jul-31 13:31N 51°21' E 003°11'0 0.0
2014-Jul-31 12:33N 51°21' E 003°11'8 7.6
2014-Jul-31 11:33N 51°25' E 003°01'1212.5
2014-Jul-31 10:34N 51°22' E 002°41'1717.3
2014-Jul-31 09:33N 51°18' E 002°14'1919.4
2014-Jul-31 08:33N 51°32' E 001°52'2020.0
2014-Jul-31 07:33N 51°51' E 001°41'1010.1
2014-Jul-31 06:33N 51°56' E 001°27'6 6.1
2014-Jul-31 05:33N 51°58' E 001°17'0 0.0
2014-Jul-31 04:32N 51°58' E 001°17'0 0.0
2014-Jul-31 03:32N 51°58' E 001°17'0 0.0
2014-Jul-31 02:32N 51°58' E 001°17'0 0.0
2014-Jul-31 01:32N 51°58' E 001°17'0 0.0
2014-Jul-31 00:32N 51°58' E 001°17'0 0.0
2014-Jul-30 23:33N 51°58' E 001°17'0 0.0
2014-Jul-30 22:32N 51°58' E 001°17'0 0.0
2014-Jul-30 21:32N 51°58' E 001°17'0 0.0
2014-Jul-30 20:32N 51°58' E 001°17'0 0.0
2014-Jul-30 19:32N 51°58' E 001°17'0 0.0
2014-Jul-30 18:32N 51°58' E 001°17'0 0.0
2014-Jul-30 17:32N 51°58' E 001°17'0 0.0
2014-Jul-30 16:32N 51°58' E 001°17'0 0.0
2014-Jul-30 15:32N 51°58' E 001°17'0 0.0
2014-Jul-30 14:32N 51°58' E 001°17'0 0.0
2014-Jul-30 13:32N 51°58' E 001°17'0 0.0
2014-Jul-30 12:32N 51°58' E 001°17'0 0.0
2014-Jul-30 11:32N 51°58' E 001°17'0 0.0
2014-Jul-30 10:32N 51°58' E 001°17'0 0.0
2014-Jul-30 09:32N 51°58' E 001°17'0 0.0
2014-Jul-30 08:32N 51°58' E 001°17'0 0.0
2014-Jul-30 07:32N 51°58' E 001°17'0 0.0
2014-Jul-30 06:32N 51°58' E 001°17'0 0.0
2014-Jul-30 05:32N 51°58' E 001°17'0 0.0
2014-Jul-30 04:32N 51°58' E 001°17'0 0.0
2014-Jul-30 03:32N 51°58' E 001°17'0 0.0
2014-Jul-30 02:32N 51°58' E 001°17'0 0.0
2014-Jul-30 01:32N 51°58' E 001°17'0 0.0
2014-Jul-30 00:32N 51°58' E 001°17'0 0.0
2014-Jul-29 23:32N 51°58' E 001°17'0 0.0
2014-Jul-29 22:32N 51°58' E 001°17'0 0.0
2014-Jul-29 21:32N 51°58' E 001°17'0 0.0
2014-Jul-29 20:32N 51°58' E 001°17'0 0.0
2014-Jul-29 19:33N 51°58' E 001°17'0 0.0
2014-Jul-29 18:33N 51°58' E 001°17'0 0.0
2014-Jul-29 17:33N 51°58' E 001°17'0 0.0
2014-Jul-29 16:33N 51°58' E 001°17'0 0.0
2014-Jul-29 15:33N 51°58' E 001°17'0 0.0
2014-Jul-29 14:33N 51°58' E 001°17'0 0.0
2014-Jul-29 13:33N 51°58' E 001°17'0 0.0
2014-Jul-29 12:33N 51°58' E 001°17'0 0.0
2014-Jul-29 11:33N 51°58' E 001°17'3 2.8
2014-Jul-29 10:33N 51°55' E 001°20'1010.0
2014-Jul-29 09:33N 51°52' E 001°35'6 5.7
2014-Jul-29 08:33N 51°51' E 001°44'6 6.3
2014-Jul-29 07:34N 51°45' E 001°48'1111.1
2014-Jul-29 06:34N 51°34' E 001°48'1919.3
2014-Jul-29 05:34N 51°16' E 001°39'1514.9
2014-Jul-29 04:33N 51°01' E 001°36'2218.8
2014-Jul-29 03:24N 50°42' E 001°20'1518.1
2014-Jul-29 02:33N 50°32' E 001°00'1817.7
2014-Jul-29 01:33N 50°26' E 000°34'5919.3
2014-Jul-28 22:28N 50°10' W 000°56'2122.1
2014-Jul-28 21:32N 50°05' W 001°27'2922.7
2014-Jul-28 20:17N 49°58' W 002°10'70019.1
2014-Jul-27 07:33N 39°38' W 009°50'2120.7
2014-Jul-27 06:33N 39°17' W 009°51'2020.5
2014-Jul-27 05:33N 38°57' W 009°51'2020.3
2014-Jul-27 04:33N 38°37' W 009°50'2321.0
2014-Jul-27 03:28N 38°15' W 009°43'1920.6
2014-Jul-27 02:32N 37°56' W 009°38'2120.8
2014-Jul-27 01:33N 37°36' W 009°33'2120.8
2014-Jul-27 00:33N 37°16' W 009°26'2020.3
2014-Jul-26 23:33N 36°56' W 009°21'2020.0
2014-Jul-26 22:33N 36°42' W 009°02'2020.5
2014-Jul-26 21:33N 36°37' W 008°38'2120.6
2014-Jul-26 20:33N 36°30' W 008°13'2120.6
2014-Jul-26 19:33N 36°24' W 007°49'2020.5
2014-Jul-26 18:33N 36°18' W 007°25'2020.2
2014-Jul-26 17:33N 36°11' W 007°01'2020.0
2014-Jul-26 16:33N 36°05' W 006°38'1919.2
2014-Jul-26 15:33N 35°58' W 006°15'1918.8
2014-Jul-26 14:33N 35°58' W 005°52'2118.5
2014-Jul-26 13:24N 36°00' W 005°26'26120.1
2014-Jul-26 00:27N 36°33' W 000°05'1820.3
2014-Jul-25 23:33N 36°37' E 000°17'18420.3
2014-Jul-25 14:31N 37°06' E 004°04'2420.3
2014-Jul-25 13:21N 37°08' E 004°34'1620.6
2014-Jul-25 12:33N 37°11' E 004°54'4621.0
2014-Jul-25 10:21N 37°19' E 005°51'1618.9
2014-Jul-25 09:29N 37°22' E 006°11'4920.7
2014-Jul-25 07:09N 37°30' E 007°12'1520.6
2014-Jul-25 06:24N 37°33' E 007°31'2720.9
2014-Jul-25 05:07N 37°37' E 008°04'1221.2
2014-Jul-25 04:33N 37°38' E 008°19'2520.6
2014-Jul-25 03:20N 37°42' E 008°50'1620.0
2014-Jul-25 02:33N 37°42' E 009°10'2020.0
2014-Jul-25 01:33N 37°41' E 009°35'2020.0
2014-Jul-25 00:32N 37°40' E 010°01'2019.9
2014-Jul-24 23:32N 37°37' E 010°26'2020.5
2014-Jul-24 22:33N 37°33' E 010°50'6420.8
2014-Jul-24 19:27N 37°06' E 012°04'1820.4
2014-Jul-24 18:33N 37°01' E 012°26'2020.4
2014-Jul-24 17:33N 36°54' E 012°50'2120.7
2014-Jul-24 16:33N 36°48' E 013°15'2120.6
2014-Jul-24 15:33N 36°41' E 013°39'2120.6
2014-Jul-24 14:33N 36°35' E 014°04'2020.4
2014-Jul-24 13:33N 36°29' E 014°28'2020.0
2014-Jul-24 12:33N 36°22' E 014°51'2120.3
2014-Jul-24 11:33N 36°16' E 015°16'49520.5
2014-Jul-23 11:28N 33°44' E 024°50'2320.9
2014-Jul-23 10:21N 33°37' E 025°17'1720.6
2014-Jul-23 09:31N 33°32' E 025°37'  

Dump ship's entire track history